<?xml version="1.0" encoding="UTF-8" standalone="no" ?>
<gpx xmlns="http://www.topografix.com/GPX/1/1" xmlns:xsi="http://www.w3.org/2001/XMLSchema-instance" xsi:schemaLocation="http://www.topografix.com/GPX/1/1 http://www.topografix.com/GPX/1/1/gpx.xsd" version="1.1" creator="VisuGPX - https://www.visugpx.com">
  <metadata>
    <name>Castelculier Cabalsaut 9.1 km</name>
  </metadata>
  <trk>
    <name><![CDATA[Pierre_NARFIT_2025-03-27_14-04-50]]></name>
    <extensions>
      <line xmlns="http://www.topografix.com/GPX/gpx_style/0/2">
        <color>0000FF</color>
        <width>4</width>
      </line>
    </extensions>
    <trkseg>
      <trkpt lat="44.18686" lon="0.73722">
        <ele>91.7</ele>
        <time>2025-03-27T13:05:04.406Z</time>
      </trkpt>
      <trkpt lat="44.18689" lon="0.73741">
        <ele>95</ele>
        <time>2025-03-27T13:05:06.406Z</time>
      </trkpt>
      <trkpt lat="44.18685" lon="0.7375">
        <ele>96.3</ele>
        <time>2025-03-27T13:05:07.406Z</time>
      </trkpt>
      <trkpt lat="44.18685" lon="0.73755">
        <ele>96.8</ele>
        <time>2025-03-27T13:05:15.406Z</time>
      </trkpt>
      <trkpt lat="44.18681" lon="0.73762">
        <ele>97.3</ele>
        <time>2025-03-27T13:05:43.406Z</time>
      </trkpt>
      <trkpt lat="44.18676" lon="0.73769">
        <ele>97.7</ele>
        <time>2025-03-27T13:05:51.406Z</time>
      </trkpt>
      <trkpt lat="44.18671" lon="0.73777">
        <ele>98.3</ele>
        <time>2025-03-27T13:05:59.406Z</time>
      </trkpt>
      <trkpt lat="44.18659" lon="0.73789">
        <ele>98.6</ele>
        <time>2025-03-27T13:06:11.406Z</time>
      </trkpt>
      <trkpt lat="44.18627" lon="0.73823">
        <ele>97.1</ele>
        <time>2025-03-27T13:06:43.406Z</time>
      </trkpt>
      <trkpt lat="44.18619" lon="0.73832">
        <ele>97.1</ele>
        <time>2025-03-27T13:06:51.406Z</time>
      </trkpt>
      <trkpt lat="44.18602" lon="0.73836">
        <ele>96.5</ele>
        <time>2025-03-27T13:07:29.406Z</time>
      </trkpt>
      <trkpt lat="44.1858" lon="0.73841">
        <ele>97.7</ele>
        <time>2025-03-27T13:08:05.406Z</time>
      </trkpt>
      <trkpt lat="44.18537" lon="0.73843">
        <ele>101.5</ele>
        <time>2025-03-27T13:08:45.406Z</time>
      </trkpt>
      <trkpt lat="44.18503" lon="0.7385">
        <ele>100.7</ele>
        <time>2025-03-27T13:09:09.406Z</time>
      </trkpt>
      <trkpt lat="44.1847" lon="0.73862">
        <ele>97</ele>
        <time>2025-03-27T13:09:54.406Z</time>
      </trkpt>
      <trkpt lat="44.1846" lon="0.73871">
        <ele>97.3</ele>
        <time>2025-03-27T13:11:06.406Z</time>
      </trkpt>
      <trkpt lat="44.18451" lon="0.73874">
        <ele>96.8</ele>
        <time>2025-03-27T13:11:26.406Z</time>
      </trkpt>
      <trkpt lat="44.18444" lon="0.73876">
        <ele>96</ele>
        <time>2025-03-27T13:11:58.406Z</time>
      </trkpt>
      <trkpt lat="44.1844" lon="0.73879">
        <ele>95.7</ele>
        <time>2025-03-27T13:12:06.406Z</time>
      </trkpt>
      <trkpt lat="44.18436" lon="0.73885">
        <ele>95.5</ele>
        <time>2025-03-27T13:12:38.406Z</time>
      </trkpt>
      <trkpt lat="44.18428" lon="0.73888">
        <ele>94.6</ele>
        <time>2025-03-27T13:12:46.406Z</time>
      </trkpt>
      <trkpt lat="44.18422" lon="0.73897">
        <ele>94.3</ele>
        <time>2025-03-27T13:12:54.406Z</time>
      </trkpt>
      <trkpt lat="44.18414" lon="0.73938">
        <ele>96.2</ele>
        <time>2025-03-27T13:13:26.406Z</time>
      </trkpt>
      <trkpt lat="44.18412" lon="0.73982">
        <ele>96.8</ele>
        <time>2025-03-27T13:13:58.406Z</time>
      </trkpt>
      <trkpt lat="44.18413" lon="0.73991">
        <ele>97.1</ele>
        <time>2025-03-27T13:14:06.406Z</time>
      </trkpt>
      <trkpt lat="44.18415" lon="0.73997">
        <ele>97.7</ele>
        <time>2025-03-27T13:14:10.406Z</time>
      </trkpt>
      <trkpt lat="44.18416" lon="0.74042">
        <ele>97.4</ele>
        <time>2025-03-27T13:14:42.406Z</time>
      </trkpt>
      <trkpt lat="44.18412" lon="0.74067">
        <ele>96.8</ele>
        <time>2025-03-27T13:14:58.406Z</time>
      </trkpt>
      <trkpt lat="44.18411" lon="0.74073">
        <ele>96.4</ele>
        <time>2025-03-27T13:15:10.406Z</time>
      </trkpt>
      <trkpt lat="44.18407" lon="0.74109">
        <ele>95.4</ele>
        <time>2025-03-27T13:15:34.406Z</time>
      </trkpt>
      <trkpt lat="44.18407" lon="0.74127">
        <ele>94.4</ele>
        <time>2025-03-27T13:15:46.406Z</time>
      </trkpt>
      <trkpt lat="44.18409" lon="0.74133">
        <ele>94.4</ele>
        <time>2025-03-27T13:15:50.406Z</time>
      </trkpt>
      <trkpt lat="44.18416" lon="0.74175">
        <ele>89.2</ele>
        <time>2025-03-27T13:16:22.406Z</time>
      </trkpt>
      <trkpt lat="44.18433" lon="0.74237">
        <ele>82.1</ele>
        <time>2025-03-27T13:17:26.406Z</time>
      </trkpt>
      <trkpt lat="44.18456" lon="0.7429">
        <ele>77.6</ele>
        <time>2025-03-27T13:18:06.406Z</time>
      </trkpt>
      <trkpt lat="44.18463" lon="0.7434">
        <ele>73.2</ele>
        <time>2025-03-27T13:18:34.406Z</time>
      </trkpt>
      <trkpt lat="44.18455" lon="0.74394">
        <ele>69.7</ele>
        <time>2025-03-27T13:19:06.406Z</time>
      </trkpt>
      <trkpt lat="44.18445" lon="0.7443">
        <ele>67.6</ele>
        <time>2025-03-27T13:19:30.406Z</time>
      </trkpt>
      <trkpt lat="44.18441" lon="0.74453">
        <ele>67</ele>
        <time>2025-03-27T13:19:46.406Z</time>
      </trkpt>
      <trkpt lat="44.18432" lon="0.74489">
        <ele>65.6</ele>
        <time>2025-03-27T13:20:10.407Z</time>
      </trkpt>
      <trkpt lat="44.18433" lon="0.74493">
        <ele>65.4</ele>
        <time>2025-03-27T13:20:14.406Z</time>
      </trkpt>
      <trkpt lat="44.18442" lon="0.74496">
        <ele>65.3</ele>
        <time>2025-03-27T13:20:22.406Z</time>
      </trkpt>
      <trkpt lat="44.18458" lon="0.74497">
        <ele>65.2</ele>
        <time>2025-03-27T13:20:38.406Z</time>
      </trkpt>
      <trkpt lat="44.18497" lon="0.74496">
        <ele>66</ele>
        <time>2025-03-27T13:21:10.406Z</time>
      </trkpt>
      <trkpt lat="44.18545" lon="0.74509">
        <ele>67.7</ele>
        <time>2025-03-27T13:21:50.406Z</time>
      </trkpt>
      <trkpt lat="44.18567" lon="0.74525">
        <ele>68</ele>
        <time>2025-03-27T13:22:14.406Z</time>
      </trkpt>
      <trkpt lat="44.18606" lon="0.74553">
        <ele>68</ele>
        <time>2025-03-27T13:23:14.406Z</time>
      </trkpt>
      <trkpt lat="44.18626" lon="0.7456">
        <ele>68.8</ele>
        <time>2025-03-27T13:23:30.406Z</time>
      </trkpt>
      <trkpt lat="44.18645" lon="0.74563">
        <ele>69.6</ele>
        <time>2025-03-27T13:23:46.406Z</time>
      </trkpt>
      <trkpt lat="44.18666" lon="0.74563">
        <ele>69.7</ele>
        <time>2025-03-27T13:24:02.406Z</time>
      </trkpt>
      <trkpt lat="44.18695" lon="0.74558">
        <ele>70</ele>
        <time>2025-03-27T13:24:26.406Z</time>
      </trkpt>
      <trkpt lat="44.18708" lon="0.74553">
        <ele>70.8</ele>
        <time>2025-03-27T13:24:38.406Z</time>
      </trkpt>
      <trkpt lat="44.18717" lon="0.7455">
        <ele>71.5</ele>
        <time>2025-03-27T13:24:46.406Z</time>
      </trkpt>
      <trkpt lat="44.18769" lon="0.74533">
        <ele>72.8</ele>
        <time>2025-03-27T13:25:30.406Z</time>
      </trkpt>
      <trkpt lat="44.18779" lon="0.74532">
        <ele>72.9</ele>
        <time>2025-03-27T13:25:38.406Z</time>
      </trkpt>
      <trkpt lat="44.1879" lon="0.74534">
        <ele>72.9</ele>
        <time>2025-03-27T13:25:46.406Z</time>
      </trkpt>
      <trkpt lat="44.18831" lon="0.74549">
        <ele>73.2</ele>
        <time>2025-03-27T13:26:18.406Z</time>
      </trkpt>
      <trkpt lat="44.1884" lon="0.74551">
        <ele>73.4</ele>
        <time>2025-03-27T13:26:26.406Z</time>
      </trkpt>
      <trkpt lat="44.18859" lon="0.74546">
        <ele>73.9</ele>
        <time>2025-03-27T13:26:42.406Z</time>
      </trkpt>
      <trkpt lat="44.18866" lon="0.74546">
        <ele>74.1</ele>
        <time>2025-03-27T13:26:48.406Z</time>
      </trkpt>
      <trkpt lat="44.18904" lon="0.74541">
        <ele>75.1</ele>
        <time>2025-03-27T13:27:20.406Z</time>
      </trkpt>
      <trkpt lat="44.18922" lon="0.74541">
        <ele>75.6</ele>
        <time>2025-03-27T13:27:36.406Z</time>
      </trkpt>
      <trkpt lat="44.18938" lon="0.74537">
        <ele>75.9</ele>
        <time>2025-03-27T13:27:52.406Z</time>
      </trkpt>
      <trkpt lat="44.18966" lon="0.74541">
        <ele>76.8</ele>
        <time>2025-03-27T13:28:16.406Z</time>
      </trkpt>
      <trkpt lat="44.18985" lon="0.74552">
        <ele>77.1</ele>
        <time>2025-03-27T13:28:32.406Z</time>
      </trkpt>
      <trkpt lat="44.19023" lon="0.74569">
        <ele>78.7</ele>
        <time>2025-03-27T13:29:04.406Z</time>
      </trkpt>
      <trkpt lat="44.19079" lon="0.74591">
        <ele>79.3</ele>
        <time>2025-03-27T13:29:52.406Z</time>
      </trkpt>
      <trkpt lat="44.19116" lon="0.74603">
        <ele>80.8</ele>
        <time>2025-03-27T13:30:24.406Z</time>
      </trkpt>
      <trkpt lat="44.19153" lon="0.74613">
        <ele>81.2</ele>
        <time>2025-03-27T13:30:56.406Z</time>
      </trkpt>
      <trkpt lat="44.19189" lon="0.74617">
        <ele>82.1</ele>
        <time>2025-03-27T13:31:28.406Z</time>
      </trkpt>
      <trkpt lat="44.19226" lon="0.74619">
        <ele>83.5</ele>
        <time>2025-03-27T13:32:00.406Z</time>
      </trkpt>
      <trkpt lat="44.19288" lon="0.74619">
        <ele>85.4</ele>
        <time>2025-03-27T13:32:52.406Z</time>
      </trkpt>
      <trkpt lat="44.19291" lon="0.74617">
        <ele>85.3</ele>
        <time>2025-03-27T13:32:56.406Z</time>
      </trkpt>
      <trkpt lat="44.19307" lon="0.74615">
        <ele>86.1</ele>
      </trkpt>
      <trkpt lat="44.19328" lon="0.74615">
        <ele>86.1</ele>
        <time>2025-03-27T13:33:28.406Z</time>
      </trkpt>
      <trkpt lat="44.19341" lon="0.7462">
        <ele>86.5</ele>
        <time>2025-03-27T13:34:00.406Z</time>
      </trkpt>
      <trkpt lat="44.19358" lon="0.74645">
        <ele>87.3</ele>
        <time>2025-03-27T13:34:32.406Z</time>
      </trkpt>
      <trkpt lat="44.19374" lon="0.74698">
        <ele>89.9</ele>
        <time>2025-03-27T13:35:04.406Z</time>
      </trkpt>
      <trkpt lat="44.19409" lon="0.74822">
        <ele>95</ele>
        <time>2025-03-27T13:36:24.406Z</time>
      </trkpt>
      <trkpt lat="44.19422" lon="0.74855">
        <ele>98.3</ele>
        <time>2025-03-27T13:36:48.406Z</time>
      </trkpt>
      <trkpt lat="44.19425" lon="0.74879">
        <ele>100.7</ele>
        <time>2025-03-27T13:37:04.406Z</time>
      </trkpt>
      <trkpt lat="44.19423" lon="0.74892">
        <ele>101.8</ele>
        <time>2025-03-27T13:37:12.406Z</time>
      </trkpt>
      <trkpt lat="44.19418" lon="0.74902">
        <ele>102.5</ele>
        <time>2025-03-27T13:37:20.406Z</time>
      </trkpt>
      <trkpt lat="44.19411" lon="0.74912">
        <ele>103.4</ele>
        <time>2025-03-27T13:37:28.406Z</time>
      </trkpt>
      <trkpt lat="44.19404" lon="0.74917">
        <ele>104.1</ele>
        <time>2025-03-27T13:37:36.406Z</time>
      </trkpt>
      <trkpt lat="44.19399" lon="0.7492">
        <ele>104.4</ele>
        <time>2025-03-27T13:37:52.406Z</time>
      </trkpt>
      <trkpt lat="44.19395" lon="0.74918">
        <ele>104.2</ele>
        <time>2025-03-27T13:41:36.406Z</time>
      </trkpt>
      <trkpt lat="44.19382" lon="0.74915">
        <ele>104.3</ele>
        <time>2025-03-27T13:42:32.406Z</time>
      </trkpt>
      <trkpt lat="44.19352" lon="0.74895">
        <ele>104</ele>
        <time>2025-03-27T13:43:04.406Z</time>
      </trkpt>
      <trkpt lat="44.19334" lon="0.74887">
        <ele>103.8</ele>
        <time>2025-03-27T13:43:20.406Z</time>
      </trkpt>
      <trkpt lat="44.19321" lon="0.74883">
        <ele>104.8</ele>
        <time>2025-03-27T13:43:32.406Z</time>
      </trkpt>
      <trkpt lat="44.19314" lon="0.74877">
        <ele>105.4</ele>
        <time>2025-03-27T13:43:40.406Z</time>
      </trkpt>
      <trkpt lat="44.19289" lon="0.74879">
        <ele>108.4</ele>
        <time>2025-03-27T13:44:04.406Z</time>
      </trkpt>
      <trkpt lat="44.19267" lon="0.74892">
        <ele>111</ele>
        <time>2025-03-27T13:44:28.406Z</time>
      </trkpt>
      <trkpt lat="44.19255" lon="0.74905">
        <ele>113.3</ele>
        <time>2025-03-27T13:44:44.406Z</time>
      </trkpt>
      <trkpt lat="44.19244" lon="0.74912">
        <ele>115.3</ele>
        <time>2025-03-27T13:45:00.406Z</time>
      </trkpt>
      <trkpt lat="44.19241" lon="0.74924">
        <ele>116.6</ele>
        <time>2025-03-27T13:45:16.406Z</time>
      </trkpt>
      <trkpt lat="44.19241" lon="0.74927">
        <ele>116.8</ele>
        <time>2025-03-27T13:45:20.406Z</time>
      </trkpt>
      <trkpt lat="44.19244" lon="0.74931">
        <ele>116.6</ele>
        <time>2025-03-27T13:45:24.406Z</time>
      </trkpt>
      <trkpt lat="44.19245" lon="0.74938">
        <ele>117</ele>
        <time>2025-03-27T13:45:32.406Z</time>
      </trkpt>
      <trkpt lat="44.19255" lon="0.74949">
        <ele>117.5</ele>
        <time>2025-03-27T13:45:48.406Z</time>
      </trkpt>
      <trkpt lat="44.19264" lon="0.74951">
        <ele>117.3</ele>
        <time>2025-03-27T13:46:00.406Z</time>
      </trkpt>
      <trkpt lat="44.1927" lon="0.74953">
        <ele>117.4</ele>
        <time>2025-03-27T13:46:04.406Z</time>
      </trkpt>
      <trkpt lat="44.19294" lon="0.74969">
        <ele>119.7</ele>
        <time>2025-03-27T13:46:28.406Z</time>
      </trkpt>
      <trkpt lat="44.19301" lon="0.74977">
        <ele>121.1</ele>
        <time>2025-03-27T13:46:36.406Z</time>
      </trkpt>
      <trkpt lat="44.19306" lon="0.74979">
        <ele>121.2</ele>
        <time>2025-03-27T13:46:40.406Z</time>
      </trkpt>
      <trkpt lat="44.19315" lon="0.74989">
        <ele>122.2</ele>
        <time>2025-03-27T13:46:48.406Z</time>
      </trkpt>
      <trkpt lat="44.19323" lon="0.75001">
        <ele>123.8</ele>
        <time>2025-03-27T13:46:56.406Z</time>
      </trkpt>
      <trkpt lat="44.19327" lon="0.75004">
        <ele>123.9</ele>
        <time>2025-03-27T13:47:00.406Z</time>
      </trkpt>
      <trkpt lat="44.19341" lon="0.75029">
        <ele>124.8</ele>
        <time>2025-03-27T13:47:16.406Z</time>
      </trkpt>
      <trkpt lat="44.1935" lon="0.75052">
        <ele>126.2</ele>
        <time>2025-03-27T13:47:32.406Z</time>
      </trkpt>
      <trkpt lat="44.19356" lon="0.75063">
        <ele>126.5</ele>
        <time>2025-03-27T13:47:40.406Z</time>
      </trkpt>
      <trkpt lat="44.19369" lon="0.75096">
        <ele>128</ele>
        <time>2025-03-27T13:48:04.406Z</time>
      </trkpt>
      <trkpt lat="44.19374" lon="0.75121">
        <ele>129.2</ele>
        <time>2025-03-27T13:48:20.406Z</time>
      </trkpt>
      <trkpt lat="44.19374" lon="0.75134">
        <ele>130</ele>
        <time>2025-03-27T13:48:28.406Z</time>
      </trkpt>
      <trkpt lat="44.19331" lon="0.75274">
        <ele>139.1</ele>
        <time>2025-03-27T13:50:04.406Z</time>
      </trkpt>
      <trkpt lat="44.19326" lon="0.75299">
        <ele>139.8</ele>
        <time>2025-03-27T13:50:20.406Z</time>
      </trkpt>
      <trkpt lat="44.19326" lon="0.75313">
        <ele>139.5</ele>
        <time>2025-03-27T13:50:28.406Z</time>
      </trkpt>
      <trkpt lat="44.19342" lon="0.75397">
        <ele>139.9</ele>
        <time>2025-03-27T13:51:20.406Z</time>
      </trkpt>
      <trkpt lat="44.19346" lon="0.75411">
        <ele>139.9</ele>
        <time>2025-03-27T13:51:28.406Z</time>
      </trkpt>
      <trkpt lat="44.19351" lon="0.75443">
        <ele>141.1</ele>
        <time>2025-03-27T13:51:48.406Z</time>
      </trkpt>
      <trkpt lat="44.1937" lon="0.75474">
        <ele>140.8</ele>
        <time>2025-03-27T13:52:12.406Z</time>
      </trkpt>
      <trkpt lat="44.19372" lon="0.75485">
        <ele>141.7</ele>
        <time>2025-03-27T13:52:20.406Z</time>
      </trkpt>
      <trkpt lat="44.19378" lon="0.75504">
        <ele>143.2</ele>
        <time>2025-03-27T13:52:36.406Z</time>
      </trkpt>
      <trkpt lat="44.19387" lon="0.75512">
        <ele>143.8</ele>
        <time>2025-03-27T13:55:32.406Z</time>
      </trkpt>
      <trkpt lat="44.19391" lon="0.75513">
        <ele>144.1</ele>
        <time>2025-03-27T13:56:00.406Z</time>
      </trkpt>
      <trkpt lat="44.19402" lon="0.75499">
        <ele>145.1</ele>
        <time>2025-03-27T13:56:16.406Z</time>
      </trkpt>
      <trkpt lat="44.19416" lon="0.75485">
        <ele>145.7</ele>
        <time>2025-03-27T13:56:32.406Z</time>
      </trkpt>
      <trkpt lat="44.19429" lon="0.7547">
        <ele>144.9</ele>
        <time>2025-03-27T13:56:48.406Z</time>
      </trkpt>
      <trkpt lat="44.19465" lon="0.75448">
        <ele>145.3</ele>
        <time>2025-03-27T13:57:24.406Z</time>
      </trkpt>
      <trkpt lat="44.1948" lon="0.7544">
        <ele>145.4</ele>
        <time>2025-03-27T13:57:40.406Z</time>
      </trkpt>
      <trkpt lat="44.19498" lon="0.75432">
        <ele>146.7</ele>
        <time>2025-03-27T13:57:56.406Z</time>
      </trkpt>
      <trkpt lat="44.19533" lon="0.75412">
        <ele>149.8</ele>
        <time>2025-03-27T13:58:28.406Z</time>
      </trkpt>
      <trkpt lat="44.19565" lon="0.75399">
        <ele>150.5</ele>
        <time>2025-03-27T13:58:56.406Z</time>
      </trkpt>
      <trkpt lat="44.19602" lon="0.7539">
        <ele>151.9</ele>
        <time>2025-03-27T13:59:44.406Z</time>
      </trkpt>
      <trkpt lat="44.19654" lon="0.75372">
        <ele>151.3</ele>
        <time>2025-03-27T14:02:24.406Z</time>
      </trkpt>
      <trkpt lat="44.19757" lon="0.75294">
        <ele>154</ele>
        <time>2025-03-27T14:04:04.406Z</time>
      </trkpt>
      <trkpt lat="44.1983" lon="0.75258">
        <ele>156.4</ele>
        <time>2025-03-27T14:05:08.406Z</time>
      </trkpt>
      <trkpt lat="44.19868" lon="0.75242">
        <ele>157.5</ele>
        <time>2025-03-27T14:05:40.406Z</time>
      </trkpt>
      <trkpt lat="44.19905" lon="0.75229">
        <ele>158.6</ele>
        <time>2025-03-27T14:06:12.406Z</time>
      </trkpt>
      <trkpt lat="44.19943" lon="0.75214">
        <ele>159.9</ele>
        <time>2025-03-27T14:06:44.406Z</time>
      </trkpt>
      <trkpt lat="44.19961" lon="0.75204">
        <ele>160.4</ele>
        <time>2025-03-27T14:07:00.406Z</time>
      </trkpt>
      <trkpt lat="44.19978" lon="0.75192">
        <ele>161.2</ele>
        <time>2025-03-27T14:07:16.406Z</time>
      </trkpt>
      <trkpt lat="44.19986" lon="0.75184">
        <ele>161.5</ele>
        <time>2025-03-27T14:07:24.406Z</time>
      </trkpt>
      <trkpt lat="44.20013" lon="0.75147">
        <ele>162.7</ele>
        <time>2025-03-27T14:07:56.406Z</time>
      </trkpt>
      <trkpt lat="44.20035" lon="0.75107">
        <ele>162.8</ele>
        <time>2025-03-27T14:08:28.406Z</time>
      </trkpt>
      <trkpt lat="44.20052" lon="0.75076">
        <ele>163.9</ele>
        <time>2025-03-27T14:08:52.406Z</time>
      </trkpt>
      <trkpt lat="44.20067" lon="0.75045">
        <ele>163</ele>
        <time>2025-03-27T14:09:16.406Z</time>
      </trkpt>
      <trkpt lat="44.20084" lon="0.75026">
        <ele>161.9</ele>
        <time>2025-03-27T14:10:00.406Z</time>
      </trkpt>
      <trkpt lat="44.2012" lon="0.74972">
        <ele>160</ele>
        <time>2025-03-27T14:11:08.406Z</time>
      </trkpt>
      <trkpt lat="44.20152" lon="0.74914">
        <ele>159.4</ele>
        <time>2025-03-27T14:11:56.406Z</time>
      </trkpt>
      <trkpt lat="44.20157" lon="0.749">
        <ele>159.1</ele>
        <time>2025-03-27T14:12:04.406Z</time>
      </trkpt>
      <trkpt lat="44.2016" lon="0.74887">
        <ele>158.7</ele>
        <time>2025-03-27T14:12:12.406Z</time>
      </trkpt>
      <trkpt lat="44.20161" lon="0.74874">
        <ele>158.2</ele>
        <time>2025-03-27T14:12:20.406Z</time>
      </trkpt>
      <trkpt lat="44.20159" lon="0.74862">
        <ele>157.7</ele>
        <time>2025-03-27T14:12:28.406Z</time>
      </trkpt>
      <trkpt lat="44.20155" lon="0.7485">
        <ele>157.1</ele>
        <time>2025-03-27T14:12:36.406Z</time>
      </trkpt>
      <trkpt lat="44.20142" lon="0.74829">
        <ele>156.7</ele>
        <time>2025-03-27T14:12:52.406Z</time>
      </trkpt>
      <trkpt lat="44.20084" lon="0.74761">
        <ele>156.4</ele>
        <time>2025-03-27T14:13:56.406Z</time>
      </trkpt>
      <trkpt lat="44.20064" lon="0.74733">
        <ele>154.9</ele>
        <time>2025-03-27T14:14:20.406Z</time>
      </trkpt>
      <trkpt lat="44.1998" lon="0.74633">
        <ele>149.2</ele>
        <time>2025-03-27T14:15:56.406Z</time>
      </trkpt>
      <trkpt lat="44.19958" lon="0.74603">
        <ele>148.2</ele>
        <time>2025-03-27T14:16:24.406Z</time>
      </trkpt>
      <trkpt lat="44.19949" lon="0.74561">
        <ele>148.5</ele>
        <time>2025-03-27T14:16:48.406Z</time>
      </trkpt>
      <trkpt lat="44.19941" lon="0.74545">
        <ele>149.7</ele>
        <time>2025-03-27T14:17:00.406Z</time>
      </trkpt>
      <trkpt lat="44.19934" lon="0.74538">
        <ele>149.9</ele>
        <time>2025-03-27T14:17:08.406Z</time>
      </trkpt>
      <trkpt lat="44.19927" lon="0.74531">
        <ele>150.2</ele>
        <time>2025-03-27T14:17:16.406Z</time>
      </trkpt>
      <trkpt lat="44.19925" lon="0.7453">
        <ele>150.3</ele>
        <time>2025-03-27T14:17:18.406Z</time>
      </trkpt>
      <trkpt lat="44.19923" lon="0.74525">
        <ele>150.2</ele>
        <time>2025-03-27T14:17:22.406Z</time>
      </trkpt>
      <trkpt lat="44.1991" lon="0.74506">
        <ele>149.8</ele>
        <time>2025-03-27T14:17:38.406Z</time>
      </trkpt>
      <trkpt lat="44.19899" lon="0.74485">
        <ele>149.4</ele>
        <time>2025-03-27T14:17:54.406Z</time>
      </trkpt>
      <trkpt lat="44.19885" lon="0.74448">
        <ele>151.2</ele>
        <time>2025-03-27T14:18:18.406Z</time>
      </trkpt>
      <trkpt lat="44.19882" lon="0.7443">
        <ele>151.4</ele>
        <time>2025-03-27T14:18:34.406Z</time>
      </trkpt>
      <trkpt lat="44.19884" lon="0.74413">
        <ele>151.5</ele>
        <time>2025-03-27T14:18:50.406Z</time>
      </trkpt>
      <trkpt lat="44.19889" lon="0.74389">
        <ele>152</ele>
        <time>2025-03-27T14:19:06.406Z</time>
      </trkpt>
      <trkpt lat="44.19891" lon="0.74362">
        <ele>152.3</ele>
        <time>2025-03-27T14:19:22.406Z</time>
      </trkpt>
      <trkpt lat="44.19888" lon="0.74342">
        <ele>153.1</ele>
        <time>2025-03-27T14:19:38.406Z</time>
      </trkpt>
      <trkpt lat="44.19879" lon="0.74318">
        <ele>154.7</ele>
        <time>2025-03-27T14:19:54.406Z</time>
      </trkpt>
      <trkpt lat="44.19868" lon="0.74294">
        <ele>156.6</ele>
        <time>2025-03-27T14:20:10.406Z</time>
      </trkpt>
      <trkpt lat="44.19821" lon="0.74213">
        <ele>160.3</ele>
        <time>2025-03-27T14:24:38.406Z</time>
      </trkpt>
      <trkpt lat="44.19818" lon="0.74211">
        <ele>160.3</ele>
        <time>2025-03-27T14:24:42.406Z</time>
      </trkpt>
      <trkpt lat="44.19745" lon="0.7411">
        <ele>158</ele>
        <time>2025-03-27T14:26:50.406Z</time>
      </trkpt>
      <trkpt lat="44.19725" lon="0.7407">
        <ele>157.4</ele>
        <time>2025-03-27T14:27:22.406Z</time>
      </trkpt>
      <trkpt lat="44.19594" lon="0.73706">
        <ele>157.2</ele>
        <time>2025-03-27T14:31:38.406Z</time>
      </trkpt>
      <trkpt lat="44.19595" lon="0.73704">
        <ele>157.2</ele>
        <time>2025-03-27T14:32:10.406Z</time>
      </trkpt>
      <trkpt lat="44.19592" lon="0.737">
        <ele>157.5</ele>
        <time>2025-03-27T14:32:42.406Z</time>
      </trkpt>
      <trkpt lat="44.19585" lon="0.73682">
        <ele>158.4</ele>
        <time>2025-03-27T14:33:14.406Z</time>
      </trkpt>
      <trkpt lat="44.19566" lon="0.73646">
        <ele>161.2</ele>
        <time>2025-03-27T14:33:46.406Z</time>
      </trkpt>
      <trkpt lat="44.19544" lon="0.73613">
        <ele>164.7</ele>
        <time>2025-03-27T14:34:14.406Z</time>
      </trkpt>
      <trkpt lat="44.19537" lon="0.736">
        <ele>165.7</ele>
      </trkpt>
      <trkpt lat="44.19531" lon="0.73604">
        <ele>166.4</ele>
        <time>2025-03-27T14:36:42.406Z</time>
      </trkpt>
      <trkpt lat="44.19524" lon="0.73612">
        <ele>167.4</ele>
        <time>2025-03-27T14:37:50.406Z</time>
      </trkpt>
      <trkpt lat="44.19519" lon="0.73619">
        <ele>168.2</ele>
        <time>2025-03-27T14:37:58.406Z</time>
      </trkpt>
      <trkpt lat="44.19514" lon="0.7362">
        <ele>168.6</ele>
        <time>2025-03-27T14:38:14.406Z</time>
      </trkpt>
      <trkpt lat="44.19505" lon="0.73632">
        <ele>169.6</ele>
        <time>2025-03-27T14:38:26.406Z</time>
      </trkpt>
      <trkpt lat="44.19489" lon="0.73645">
        <ele>170.8</ele>
        <time>2025-03-27T14:38:42.406Z</time>
      </trkpt>
      <trkpt lat="44.19481" lon="0.73654">
        <ele>171.4</ele>
        <time>2025-03-27T14:38:54.406Z</time>
      </trkpt>
      <trkpt lat="44.19478" lon="0.73655">
        <ele>171.6</ele>
        <time>2025-03-27T14:38:58.406Z</time>
      </trkpt>
      <trkpt lat="44.19464" lon="0.73671">
        <ele>172.5</ele>
        <time>2025-03-27T14:39:14.406Z</time>
      </trkpt>
      <trkpt lat="44.19446" lon="0.7368">
        <ele>173.4</ele>
        <time>2025-03-27T14:39:30.406Z</time>
      </trkpt>
      <trkpt lat="44.19438" lon="0.73682">
        <ele>173.7</ele>
        <time>2025-03-27T14:39:38.406Z</time>
      </trkpt>
      <trkpt lat="44.19426" lon="0.73691">
        <ele>173.8</ele>
        <time>2025-03-27T14:39:50.406Z</time>
      </trkpt>
      <trkpt lat="44.19421" lon="0.73692">
        <ele>174</ele>
        <time>2025-03-27T14:39:54.406Z</time>
      </trkpt>
      <trkpt lat="44.19417" lon="0.73694">
        <ele>174</ele>
        <time>2025-03-27T14:39:58.406Z</time>
      </trkpt>
      <trkpt lat="44.19408" lon="0.73712">
        <ele>174.4</ele>
        <time>2025-03-27T14:40:14.406Z</time>
      </trkpt>
      <trkpt lat="44.19396" lon="0.7373">
        <ele>174.6</ele>
        <time>2025-03-27T14:40:30.406Z</time>
      </trkpt>
      <trkpt lat="44.19388" lon="0.73746">
        <ele>175</ele>
        <time>2025-03-27T14:40:46.406Z</time>
      </trkpt>
      <trkpt lat="44.19371" lon="0.73789">
        <ele>174.3</ele>
        <time>2025-03-27T14:41:18.406Z</time>
      </trkpt>
      <trkpt lat="44.19358" lon="0.7381">
        <ele>174</ele>
        <time>2025-03-27T14:41:34.406Z</time>
      </trkpt>
      <trkpt lat="44.1935" lon="0.7383">
        <ele>173.9</ele>
        <time>2025-03-27T14:41:50.406Z</time>
      </trkpt>
      <trkpt lat="44.1934" lon="0.73868">
        <ele>173</ele>
        <time>2025-03-27T14:42:14.406Z</time>
      </trkpt>
      <trkpt lat="44.19337" lon="0.73873">
        <ele>173.1</ele>
        <time>2025-03-27T14:42:18.406Z</time>
      </trkpt>
      <trkpt lat="44.19336" lon="0.73879">
        <ele>173</ele>
        <time>2025-03-27T14:42:22.406Z</time>
      </trkpt>
      <trkpt lat="44.1932" lon="0.7391">
        <ele>172.6</ele>
        <time>2025-03-27T14:42:46.406Z</time>
      </trkpt>
      <trkpt lat="44.19319" lon="0.73918">
        <ele>172.4</ele>
        <time>2025-03-27T14:42:50.406Z</time>
      </trkpt>
      <trkpt lat="44.19316" lon="0.73927">
        <ele>172.2</ele>
        <time>2025-03-27T14:42:54.406Z</time>
      </trkpt>
      <trkpt lat="44.19316" lon="0.73933">
        <ele>172</ele>
        <time>2025-03-27T14:42:58.406Z</time>
      </trkpt>
      <trkpt lat="44.19307" lon="0.73955">
        <ele>171.2</ele>
        <time>2025-03-27T14:43:14.406Z</time>
      </trkpt>
      <trkpt lat="44.19304" lon="0.73966">
        <ele>170.5</ele>
        <time>2025-03-27T14:43:22.406Z</time>
      </trkpt>
      <trkpt lat="44.19302" lon="0.73987">
        <ele>169.2</ele>
        <time>2025-03-27T14:43:38.406Z</time>
      </trkpt>
      <trkpt lat="44.19299" lon="0.74">
        <ele>168.7</ele>
        <time>2025-03-27T14:43:46.406Z</time>
      </trkpt>
      <trkpt lat="44.19298" lon="0.74013">
        <ele>167.4</ele>
        <time>2025-03-27T14:43:52.406Z</time>
      </trkpt>
      <trkpt lat="44.19288" lon="0.74024">
        <ele>167.3</ele>
        <time>2025-03-27T14:44:00.406Z</time>
      </trkpt>
      <trkpt lat="44.1927" lon="0.74035">
        <ele>167.5</ele>
        <time>2025-03-27T14:44:16.406Z</time>
      </trkpt>
      <trkpt lat="44.1926" lon="0.74037">
        <ele>167.6</ele>
        <time>2025-03-27T14:44:24.406Z</time>
      </trkpt>
      <trkpt lat="44.1925" lon="0.74036">
        <ele>167.7</ele>
        <time>2025-03-27T14:44:32.406Z</time>
      </trkpt>
      <trkpt lat="44.19238" lon="0.74038">
        <ele>167.2</ele>
        <time>2025-03-27T14:44:40.406Z</time>
      </trkpt>
      <trkpt lat="44.19221" lon="0.74036">
        <ele>166.6</ele>
        <time>2025-03-27T14:44:56.406Z</time>
      </trkpt>
      <trkpt lat="44.19207" lon="0.74033">
        <ele>165.2</ele>
        <time>2025-03-27T14:45:08.406Z</time>
      </trkpt>
      <trkpt lat="44.19196" lon="0.74037">
        <ele>164.1</ele>
        <time>2025-03-27T14:45:16.406Z</time>
      </trkpt>
      <trkpt lat="44.19188" lon="0.74036">
        <ele>163.4</ele>
        <time>2025-03-27T14:45:24.406Z</time>
      </trkpt>
      <trkpt lat="44.19179" lon="0.74039">
        <ele>162.6</ele>
        <time>2025-03-27T14:45:32.406Z</time>
      </trkpt>
      <trkpt lat="44.19159" lon="0.74041">
        <ele>161</ele>
        <time>2025-03-27T14:45:48.406Z</time>
      </trkpt>
      <trkpt lat="44.19156" lon="0.7404">
        <ele>160.9</ele>
        <time>2025-03-27T14:45:52.406Z</time>
      </trkpt>
      <trkpt lat="44.19154" lon="0.74043">
        <ele>160.5</ele>
        <time>2025-03-27T14:45:54.406Z</time>
      </trkpt>
      <trkpt lat="44.19145" lon="0.74047">
        <ele>159.5</ele>
        <time>2025-03-27T14:46:02.406Z</time>
      </trkpt>
      <trkpt lat="44.19143" lon="0.74042">
        <ele>159.8</ele>
        <time>2025-03-27T14:47:22.406Z</time>
      </trkpt>
      <trkpt lat="44.19134" lon="0.74036">
        <ele>159.6</ele>
        <time>2025-03-27T14:47:30.406Z</time>
      </trkpt>
      <trkpt lat="44.19128" lon="0.74035">
        <ele>159.1</ele>
        <time>2025-03-27T14:47:34.406Z</time>
      </trkpt>
      <trkpt lat="44.19124" lon="0.74031">
        <ele>159.1</ele>
        <time>2025-03-27T14:47:38.406Z</time>
      </trkpt>
      <trkpt lat="44.19106" lon="0.73993">
        <ele>158.7</ele>
        <time>2025-03-27T14:48:02.406Z</time>
      </trkpt>
      <trkpt lat="44.19099" lon="0.73989">
        <ele>158.3</ele>
        <time>2025-03-27T14:48:10.406Z</time>
      </trkpt>
      <trkpt lat="44.19095" lon="0.73988">
        <ele>158.1</ele>
        <time>2025-03-27T14:48:14.406Z</time>
      </trkpt>
      <trkpt lat="44.19089" lon="0.73992">
        <ele>157.7</ele>
        <time>2025-03-27T14:48:22.406Z</time>
      </trkpt>
      <trkpt lat="44.19067" lon="0.74013">
        <ele>156.3</ele>
        <time>2025-03-27T14:48:46.406Z</time>
      </trkpt>
      <trkpt lat="44.1906" lon="0.7403">
        <ele>155.1</ele>
        <time>2025-03-27T14:48:54.406Z</time>
      </trkpt>
      <trkpt lat="44.19052" lon="0.74035">
        <ele>154.8</ele>
        <time>2025-03-27T14:49:02.406Z</time>
      </trkpt>
      <trkpt lat="44.19045" lon="0.74043">
        <ele>154.6</ele>
        <time>2025-03-27T14:49:10.406Z</time>
      </trkpt>
      <trkpt lat="44.19036" lon="0.7405">
        <ele>154.4</ele>
        <time>2025-03-27T14:49:18.406Z</time>
      </trkpt>
      <trkpt lat="44.1903" lon="0.74059">
        <ele>153.9</ele>
        <time>2025-03-27T14:49:26.406Z</time>
      </trkpt>
      <trkpt lat="44.19023" lon="0.74065">
        <ele>153.6</ele>
        <time>2025-03-27T14:49:34.406Z</time>
      </trkpt>
      <trkpt lat="44.19" lon="0.74063">
        <ele>153.4</ele>
        <time>2025-03-27T14:49:50.406Z</time>
      </trkpt>
      <trkpt lat="44.18978" lon="0.74065">
        <ele>152.7</ele>
        <time>2025-03-27T14:50:06.406Z</time>
      </trkpt>
      <trkpt lat="44.18959" lon="0.7407">
        <ele>152</ele>
        <time>2025-03-27T14:50:22.407Z</time>
      </trkpt>
      <trkpt lat="44.18939" lon="0.74072">
        <ele>151.2</ele>
        <time>2025-03-27T14:50:38.406Z</time>
      </trkpt>
      <trkpt lat="44.18919" lon="0.74062">
        <ele>151.1</ele>
        <time>2025-03-27T14:50:54.406Z</time>
      </trkpt>
      <trkpt lat="44.18895" lon="0.74035">
        <ele>147.8</ele>
        <time>2025-03-27T14:51:18.406Z</time>
      </trkpt>
      <trkpt lat="44.18876" lon="0.74002">
        <ele>148.8</ele>
        <time>2025-03-27T14:51:42.406Z</time>
      </trkpt>
      <trkpt lat="44.18873" lon="0.73998">
        <ele>148.6</ele>
        <time>2025-03-27T14:52:10.406Z</time>
      </trkpt>
      <trkpt lat="44.18871" lon="0.7399">
        <ele>149.3</ele>
        <time>2025-03-27T14:53:38.406Z</time>
      </trkpt>
      <trkpt lat="44.18872" lon="0.73984">
        <ele>150.2</ele>
        <time>2025-03-27T14:53:46.406Z</time>
      </trkpt>
      <trkpt lat="44.18887" lon="0.73967">
        <ele>152.8</ele>
        <time>2025-03-27T14:54:02.406Z</time>
      </trkpt>
      <trkpt lat="44.18936" lon="0.73917">
        <ele>155</ele>
        <time>2025-03-27T14:54:50.406Z</time>
      </trkpt>
      <trkpt lat="44.18945" lon="0.73911">
        <ele>154.8</ele>
        <time>2025-03-27T14:54:58.406Z</time>
      </trkpt>
      <trkpt lat="44.18959" lon="0.73895">
        <ele>154.7</ele>
        <time>2025-03-27T14:55:14.406Z</time>
      </trkpt>
      <trkpt lat="44.18965" lon="0.73885">
        <ele>154.6</ele>
        <time>2025-03-27T14:55:22.406Z</time>
      </trkpt>
      <trkpt lat="44.18971" lon="0.73868">
        <ele>154.2</ele>
        <time>2025-03-27T14:55:38.406Z</time>
      </trkpt>
      <trkpt lat="44.18981" lon="0.73846">
        <ele>152.6</ele>
        <time>2025-03-27T14:55:54.406Z</time>
      </trkpt>
      <trkpt lat="44.18994" lon="0.73828">
        <ele>151.7</ele>
        <time>2025-03-27T14:56:10.406Z</time>
      </trkpt>
      <trkpt lat="44.19019" lon="0.73806">
        <ele>150.1</ele>
        <time>2025-03-27T14:56:34.406Z</time>
      </trkpt>
      <trkpt lat="44.19027" lon="0.73803">
        <ele>151</ele>
        <time>2025-03-27T14:56:42.406Z</time>
      </trkpt>
      <trkpt lat="44.19044" lon="0.73791">
        <ele>149.9</ele>
        <time>2025-03-27T14:56:58.406Z</time>
      </trkpt>
      <trkpt lat="44.19059" lon="0.73774">
        <ele>149.5</ele>
        <time>2025-03-27T14:57:14.406Z</time>
      </trkpt>
      <trkpt lat="44.19066" lon="0.73763">
        <ele>148.1</ele>
        <time>2025-03-27T14:57:22.406Z</time>
      </trkpt>
      <trkpt lat="44.19081" lon="0.73727">
        <ele>148.3</ele>
        <time>2025-03-27T14:57:46.406Z</time>
      </trkpt>
      <trkpt lat="44.19119" lon="0.73676">
        <ele>146.7</ele>
        <time>2025-03-27T14:58:26.406Z</time>
      </trkpt>
      <trkpt lat="44.19125" lon="0.73666">
        <ele>146.4</ele>
        <time>2025-03-27T14:58:34.406Z</time>
      </trkpt>
      <trkpt lat="44.1913" lon="0.73661">
        <ele>147.7</ele>
        <time>2025-03-27T14:58:38.406Z</time>
      </trkpt>
      <trkpt lat="44.19139" lon="0.73638">
        <ele>149.8</ele>
        <time>2025-03-27T14:58:54.406Z</time>
      </trkpt>
      <trkpt lat="44.19154" lon="0.73585">
        <ele>147.4</ele>
        <time>2025-03-27T14:59:26.406Z</time>
      </trkpt>
      <trkpt lat="44.19169" lon="0.73551">
        <ele>149.8</ele>
        <time>2025-03-27T14:59:50.406Z</time>
      </trkpt>
      <trkpt lat="44.19206" lon="0.73451">
        <ele>153.9</ele>
        <time>2025-03-27T15:00:54.406Z</time>
      </trkpt>
      <trkpt lat="44.1922" lon="0.73402">
        <ele>155.8</ele>
        <time>2025-03-27T15:01:26.406Z</time>
      </trkpt>
      <trkpt lat="44.19262" lon="0.73229">
        <ele>153.6</ele>
        <time>2025-03-27T15:03:50.406Z</time>
      </trkpt>
      <trkpt lat="44.19261" lon="0.73232">
        <ele>153.6</ele>
        <time>2025-03-27T15:04:06.406Z</time>
      </trkpt>
      <trkpt lat="44.19255" lon="0.73221">
        <ele>153.8</ele>
        <time>2025-03-27T15:06:14.406Z</time>
      </trkpt>
      <trkpt lat="44.19251" lon="0.73207">
        <ele>154</ele>
        <time>2025-03-27T15:06:30.406Z</time>
      </trkpt>
      <trkpt lat="44.1923" lon="0.73167">
        <ele>153.7</ele>
        <time>2025-03-27T15:07:02.406Z</time>
      </trkpt>
      <trkpt lat="44.19217" lon="0.73148">
        <ele>154.1</ele>
        <time>2025-03-27T15:07:18.406Z</time>
      </trkpt>
      <trkpt lat="44.19206" lon="0.73137">
        <ele>153.9</ele>
        <time>2025-03-27T15:07:30.406Z</time>
      </trkpt>
      <trkpt lat="44.19197" lon="0.7313">
        <ele>153.7</ele>
        <time>2025-03-27T15:07:44.406Z</time>
      </trkpt>
      <trkpt lat="44.19189" lon="0.73121">
        <ele>153.6</ele>
        <time>2025-03-27T15:07:52.406Z</time>
      </trkpt>
      <trkpt lat="44.1916" lon="0.73098">
        <ele>154.4</ele>
        <time>2025-03-27T15:08:20.406Z</time>
      </trkpt>
      <trkpt lat="44.1915" lon="0.7309">
        <ele>154.7</ele>
        <time>2025-03-27T15:08:32.406Z</time>
      </trkpt>
      <trkpt lat="44.19113" lon="0.73058">
        <ele>155</ele>
        <time>2025-03-27T15:09:04.406Z</time>
      </trkpt>
      <trkpt lat="44.19104" lon="0.73052">
        <ele>155.2</ele>
        <time>2025-03-27T15:09:12.406Z</time>
      </trkpt>
      <trkpt lat="44.1908" lon="0.73022">
        <ele>154.9</ele>
        <time>2025-03-27T15:09:36.406Z</time>
      </trkpt>
      <trkpt lat="44.19076" lon="0.73012">
        <ele>154.8</ele>
        <time>2025-03-27T15:09:44.406Z</time>
      </trkpt>
      <trkpt lat="44.19075" lon="0.73002">
        <ele>154.7</ele>
        <time>2025-03-27T15:09:52.406Z</time>
      </trkpt>
      <trkpt lat="44.19055" lon="0.72965">
        <ele>155.8</ele>
        <time>2025-03-27T15:10:28.406Z</time>
      </trkpt>
      <trkpt lat="44.19003" lon="0.72842">
        <ele>156.3</ele>
        <time>2025-03-27T15:11:48.406Z</time>
      </trkpt>
      <trkpt lat="44.18996" lon="0.72816">
        <ele>155.3</ele>
        <time>2025-03-27T15:12:04.406Z</time>
      </trkpt>
      <trkpt lat="44.18991" lon="0.72776">
        <ele>152.6</ele>
        <time>2025-03-27T15:12:28.406Z</time>
      </trkpt>
      <trkpt lat="44.18995" lon="0.72748">
        <ele>151.6</ele>
        <time>2025-03-27T15:12:44.406Z</time>
      </trkpt>
      <trkpt lat="44.19025" lon="0.72681">
        <ele>146.3</ele>
        <time>2025-03-27T15:13:32.406Z</time>
      </trkpt>
      <trkpt lat="44.19039" lon="0.72661">
        <ele>144.9</ele>
        <time>2025-03-27T15:13:48.406Z</time>
      </trkpt>
      <trkpt lat="44.19053" lon="0.72646">
        <ele>143.6</ele>
        <time>2025-03-27T15:14:04.406Z</time>
      </trkpt>
      <trkpt lat="44.19052" lon="0.72639">
        <ele>141.3</ele>
        <time>2025-03-27T15:14:12.406Z</time>
      </trkpt>
      <trkpt lat="44.19051" lon="0.72637">
        <ele>140.3</ele>
        <time>2025-03-27T15:14:14.406Z</time>
      </trkpt>
      <trkpt lat="44.19046" lon="0.72639">
        <ele>139.8</ele>
        <time>2025-03-27T15:14:18.406Z</time>
      </trkpt>
      <trkpt lat="44.19031" lon="0.72651">
        <ele>140.1</ele>
        <time>2025-03-27T15:14:34.406Z</time>
      </trkpt>
      <trkpt lat="44.19004" lon="0.72664">
        <ele>137.3</ele>
        <time>2025-03-27T15:14:58.406Z</time>
      </trkpt>
      <trkpt lat="44.18985" lon="0.7267">
        <ele>135</ele>
        <time>2025-03-27T15:15:14.406Z</time>
      </trkpt>
      <trkpt lat="44.18981" lon="0.72673">
        <ele>135</ele>
        <time>2025-03-27T15:15:18.406Z</time>
      </trkpt>
      <trkpt lat="44.18966" lon="0.72677">
        <ele>133.4</ele>
        <time>2025-03-27T15:15:34.406Z</time>
      </trkpt>
      <trkpt lat="44.18949" lon="0.72686">
        <ele>132.2</ele>
        <time>2025-03-27T15:16:06.406Z</time>
      </trkpt>
      <trkpt lat="44.1893" lon="0.72692">
        <ele>128.4</ele>
        <time>2025-03-27T15:16:22.406Z</time>
      </trkpt>
      <trkpt lat="44.18916" lon="0.72699">
        <ele>125.6</ele>
        <time>2025-03-27T15:16:38.406Z</time>
      </trkpt>
      <trkpt lat="44.18907" lon="0.727">
        <ele>124.1</ele>
        <time>2025-03-27T15:16:54.406Z</time>
      </trkpt>
      <trkpt lat="44.18899" lon="0.72704">
        <ele>123.1</ele>
        <time>2025-03-27T15:17:02.406Z</time>
      </trkpt>
      <trkpt lat="44.1889" lon="0.72704">
        <ele>121.4</ele>
        <time>2025-03-27T15:17:10.406Z</time>
      </trkpt>
      <trkpt lat="44.18863" lon="0.7269">
        <ele>117.5</ele>
        <time>2025-03-27T15:17:42.406Z</time>
      </trkpt>
      <trkpt lat="44.18853" lon="0.72681">
        <ele>115.3</ele>
        <time>2025-03-27T15:17:54.406Z</time>
      </trkpt>
      <trkpt lat="44.18848" lon="0.7268">
        <ele>114.7</ele>
        <time>2025-03-27T15:17:58.406Z</time>
      </trkpt>
      <trkpt lat="44.1884" lon="0.72674">
        <ele>113.7</ele>
        <time>2025-03-27T15:18:06.406Z</time>
      </trkpt>
      <trkpt lat="44.18835" lon="0.72673">
        <ele>113.3</ele>
        <time>2025-03-27T15:18:10.406Z</time>
      </trkpt>
      <trkpt lat="44.18828" lon="0.72666">
        <ele>112.2</ele>
        <time>2025-03-27T15:18:18.406Z</time>
      </trkpt>
      <trkpt lat="44.18821" lon="0.72663">
        <ele>111.2</ele>
        <time>2025-03-27T15:18:26.406Z</time>
      </trkpt>
      <trkpt lat="44.18817" lon="0.72665">
        <ele>110.7</ele>
        <time>2025-03-27T15:18:34.406Z</time>
      </trkpt>
      <trkpt lat="44.18815" lon="0.72694">
        <ele>110</ele>
        <time>2025-03-27T15:18:58.406Z</time>
      </trkpt>
      <trkpt lat="44.18812" lon="0.7271">
        <ele>109</ele>
        <time>2025-03-27T15:19:06.406Z</time>
      </trkpt>
      <trkpt lat="44.18811" lon="0.7274">
        <ele>108.8</ele>
        <time>2025-03-27T15:19:22.406Z</time>
      </trkpt>
      <trkpt lat="44.18808" lon="0.72754">
        <ele>108.7</ele>
        <time>2025-03-27T15:19:30.406Z</time>
      </trkpt>
      <trkpt lat="44.18797" lon="0.72779">
        <ele>108.6</ele>
        <time>2025-03-27T15:19:46.406Z</time>
      </trkpt>
      <trkpt lat="44.1879" lon="0.72789">
        <ele>107.9</ele>
        <time>2025-03-27T15:19:54.406Z</time>
      </trkpt>
      <trkpt lat="44.18787" lon="0.72797">
        <ele>107.8</ele>
        <time>2025-03-27T15:19:58.406Z</time>
      </trkpt>
      <trkpt lat="44.18761" lon="0.7283">
        <ele>107.5</ele>
        <time>2025-03-27T15:20:30.406Z</time>
      </trkpt>
      <trkpt lat="44.18742" lon="0.72865">
        <ele>106.7</ele>
        <time>2025-03-27T15:21:02.406Z</time>
      </trkpt>
      <trkpt lat="44.18723" lon="0.72913">
        <ele>105.9</ele>
        <time>2025-03-27T15:21:34.406Z</time>
      </trkpt>
      <trkpt lat="44.18715" lon="0.72937">
        <ele>106.7</ele>
        <time>2025-03-27T15:21:50.407Z</time>
      </trkpt>
      <trkpt lat="44.18707" lon="0.72955">
        <ele>107</ele>
        <time>2025-03-27T15:22:38.406Z</time>
      </trkpt>
      <trkpt lat="44.18707" lon="0.72956">
        <ele>107.3</ele>
        <time>2025-03-27T15:23:10.406Z</time>
      </trkpt>
      <trkpt lat="44.18698" lon="0.72968">
        <ele>107.6</ele>
        <time>2025-03-27T15:23:42.406Z</time>
      </trkpt>
      <trkpt lat="44.18682" lon="0.72982">
        <ele>106.9</ele>
        <time>2025-03-27T15:23:58.406Z</time>
      </trkpt>
      <trkpt lat="44.18653" lon="0.73017">
        <ele>107.6</ele>
        <time>2025-03-27T15:24:30.406Z</time>
      </trkpt>
      <trkpt lat="44.18631" lon="0.73062">
        <ele>106.2</ele>
        <time>2025-03-27T15:25:02.406Z</time>
      </trkpt>
      <trkpt lat="44.18623" lon="0.73088">
        <ele>106.3</ele>
        <time>2025-03-27T15:25:18.406Z</time>
      </trkpt>
      <trkpt lat="44.18603" lon="0.73139">
        <ele>105.6</ele>
        <time>2025-03-27T15:25:50.406Z</time>
      </trkpt>
      <trkpt lat="44.18579" lon="0.73192">
        <ele>105</ele>
        <time>2025-03-27T15:26:22.406Z</time>
      </trkpt>
      <trkpt lat="44.18542" lon="0.73287">
        <ele>103.6</ele>
        <time>2025-03-27T15:27:26.406Z</time>
      </trkpt>
      <trkpt lat="44.185" lon="0.73358">
        <ele>99.9</ele>
        <time>2025-03-27T15:28:14.406Z</time>
      </trkpt>
      <trkpt lat="44.18496" lon="0.73369">
        <ele>99.7</ele>
        <time>2025-03-27T15:28:22.406Z</time>
      </trkpt>
      <trkpt lat="44.18489" lon="0.73379">
        <ele>98.8</ele>
        <time>2025-03-27T15:28:30.406Z</time>
      </trkpt>
      <trkpt lat="44.18484" lon="0.73391">
        <ele>98</ele>
        <time>2025-03-27T15:28:38.406Z</time>
      </trkpt>
      <trkpt lat="44.1847" lon="0.73414">
        <ele>94.6</ele>
        <time>2025-03-27T15:28:54.406Z</time>
      </trkpt>
      <trkpt lat="44.18467" lon="0.73426">
        <ele>93.4</ele>
        <time>2025-03-27T15:29:02.406Z</time>
      </trkpt>
      <trkpt lat="44.18466" lon="0.73438">
        <ele>92.5</ele>
        <time>2025-03-27T15:29:10.406Z</time>
      </trkpt>
      <trkpt lat="44.18468" lon="0.73456">
        <ele>91.6</ele>
        <time>2025-03-27T15:29:22.406Z</time>
      </trkpt>
      <trkpt lat="44.18492" lon="0.73496">
        <ele>89.6</ele>
        <time>2025-03-27T15:29:54.406Z</time>
      </trkpt>
      <trkpt lat="44.1854" lon="0.73566">
        <ele>85.8</ele>
        <time>2025-03-27T15:30:54.406Z</time>
      </trkpt>
      <trkpt lat="44.18555" lon="0.73599">
        <ele>83.3</ele>
        <time>2025-03-27T15:31:58.406Z</time>
      </trkpt>
      <trkpt lat="44.18555" lon="0.73637">
        <ele>80.1</ele>
        <time>2025-03-27T15:32:22.406Z</time>
      </trkpt>
      <trkpt lat="44.18551" lon="0.73651">
        <ele>79.3</ele>
        <time>2025-03-27T15:32:30.406Z</time>
      </trkpt>
      <trkpt lat="44.18541" lon="0.73675">
        <ele>79.3</ele>
        <time>2025-03-27T15:32:46.406Z</time>
      </trkpt>
      <trkpt lat="44.18541" lon="0.7368">
        <ele>79.9</ele>
        <time>2025-03-27T15:32:50.406Z</time>
      </trkpt>
      <trkpt lat="44.18545" lon="0.73682">
        <ele>80.2</ele>
        <time>2025-03-27T15:32:54.406Z</time>
      </trkpt>
      <trkpt lat="44.18585" lon="0.7369">
        <ele>81.7</ele>
        <time>2025-03-27T15:33:26.406Z</time>
      </trkpt>
      <trkpt lat="44.18619" lon="0.737">
        <ele>84.3</ele>
        <time>2025-03-27T15:33:58.406Z</time>
      </trkpt>
      <trkpt lat="44.18637" lon="0.73704">
        <ele>86.2</ele>
        <time>2025-03-27T15:34:14.406Z</time>
      </trkpt>
      <trkpt lat="44.18649" lon="0.73704">
        <ele>87.1</ele>
        <time>2025-03-27T15:34:26.406Z</time>
      </trkpt>
      <trkpt lat="44.18665" lon="0.73702">
        <ele>87.9</ele>
        <time>2025-03-27T15:34:42.406Z</time>
      </trkpt>
      <trkpt lat="44.1868" lon="0.737">
        <ele>89</ele>
        <time>2025-03-27T15:34:50.406Z</time>
      </trkpt>
      <trkpt lat="44.18686" lon="0.73721">
        <ele>91.6</ele>
        <time>2025-03-27T15:35:18.406Z</time>
      </trkpt>
    </trkseg>
  </trk>
</gpx>